sensor_id;sensor_type;location;lat;lon;timestamp;pressure;altitude;pressure_sealevel;temperature;humidity
65718;BME280;52445;52.466;-1.016;2023-04-28T00:02:01;99402.94;;;8.11;82.28
65718;BME280;52445;52.466;-1.016;2023-04-28T00:04:28;99407.22;;;8.12;82.84
65718;BME280;52445;52.466;-1.016;2023-04-28T00:06:55;99396.03;;;8.15;81.79
65718;BME280;52445;52.466;-1.016;2023-04-28T00:09:21;99396.91;;;8.12;82.26
65718;BME280;52445;52.466;-1.016;2023-04-28T00:11:48;99381.41;;;8.17;82.37
65718;BME280;52445;52.466;-1.016;2023-04-28T00:14:15;99386.53;;;8.18;81.79
65718;BME280;52445;52.466;-1.016;2023-04-28T00:16:42;99390.84;;;8.18;82.45
65718;BME280;52445;52.466;-1.016;2023-04-28T00:19:09;99379.66;;;8.20;82.05
65718;BME280;52445;52.466;-1.016;2023-04-28T00:21:35;99382.25;;;8.22;81.53
65718;BME280;52445;52.466;-1.016;2023-04-28T00:24:02;99375.44;;;8.07;82.87
65718;BME280;52445;52.466;-1.016;2023-04-28T00:26:29;99367.63;;;8.16;82.40
65718;BME280;52445;52.466;-1.016;2023-04-28T00:28:55;99373.69;;;8.12;81.74
65718;BME280;52445;52.466;-1.016;2023-04-28T00:31:22;99377.97;;;8.10;82.85
65718;BME280;52445;52.466;-1.016;2023-04-28T00:33:48;99363.38;;;8.09;81.96
65718;BME280;52445;52.466;-1.016;2023-04-28T00:36:15;99364.19;;;8.16;82.06
65718;BME280;52445;52.466;-1.016;2023-04-28T00:38:42;99357.31;;;8.18;82.14
65718;BME280;52445;52.466;-1.016;2023-04-28T00:41:09;99355.56;;;8.25;80.95
65718;BME280;52445;52.466;-1.016;2023-04-28T00:43:45;99352.16;;;8.22;80.90
65718;BME280;52445;52.466;-1.016;2023-04-28T00:46:19;99344.41;;;8.21;81.37
65718;BME280;52445;52.466;-1.016;2023-04-28T00:48:48;99346.13;;;8.22;81.28
65718;BME280;52445;52.466;-1.016;2023-04-28T00:51:15;99340.09;;;8.26;81.26
65718;BME280;52445;52.466;-1.016;2023-04-28T00:53:43;99336.63;;;8.29;80.62
65718;BME280;52445;52.466;-1.016;2023-04-28T00:56:10;99338.31;;;8.33;81.50
65718;BME280;52445;52.466;-1.016;2023-04-28T00:58:37;99336.59;;;8.38;81.00
65718;BME280;52445;52.466;-1.016;2023-04-28T01:01:05;99334.84;;;8.40;80.23
65718;BME280;52445;52.466;-1.016;2023-04-28T01:03:35;99331.38;;;8.44;80.36
65718;BME280;52445;52.466;-1.016;2023-04-28T01:06:04;99334.81;;;8.46;80.09
65718;BME280;52445;52.466;-1.016;2023-04-28T01:08:31;99334.81;;;8.46;80.42
65718;BME280;52445;52.466;-1.016;2023-04-28T01:10:58;99333.06;;;8.52;79.94
65718;BME280;52445;52.466;-1.016;2023-04-28T01:13:25;99331.38;;;8.54;79.89
65718;BME280;52445;52.466;-1.016;2023-04-28T01:15:52;99327.94;;;8.55;79.95
65718;BME280;52445;52.466;-1.016;2023-04-28T01:18:19;99321.88;;;8.59;79.83
65718;BME280;52445;52.466;-1.016;2023-04-28T01:20:45;99321.00;;;8.60;80.15
65718;BME280;52445;52.466;-1.016;2023-04-28T01:23:13;99314.13;;;8.59;79.50
65718;BME280;52445;52.466;-1.016;2023-04-28T01:25:41;99317.59;;;8.58;79.86
65718;BME280;52445;52.466;-1.016;2023-04-28T01:28:08;99309.84;;;8.52;80.44
65718;BME280;52445;52.466;-1.016;2023-04-28T01:30:36;99320.16;;;8.52;80.08
65718;BME280;52445;52.466;-1.016;2023-04-28T01:33:03;99319.28;;;8.53;80.95
65718;BME280;52445;52.466;-1.016;2023-04-28T01:35:29;99319.28;;;8.53;80.16
65718;BME280;52445;52.466;-1.016;2023-04-28T01:37:56;99324.47;;;8.57;80.59
65718;BME280;52445;52.466;-1.016;2023-04-28T01:40:23;99321.00;;;8.60;79.79
65718;BME280;52445;52.466;-1.016;2023-04-28T01:42:49;99311.56;;;8.57;80.73
65718;BME280;52445;52.466;-1.016;2023-04-28T01:45:16;99321.00;;;8.57;80.59
65718;BME280;52445;52.466;-1.016;2023-04-28T01:47:43;99324.44;;;8.62;80.74
65718;BME280;52445;52.466;-1.016;2023-04-28T01:50:09;99322.75;;;8.58;81.05
65718;BME280;52445;52.466;-1.016;2023-04-28T01:52:36;99310.69;;;8.57;80.12
65718;BME280;52445;52.466;-1.016;2023-04-28T01:55:03;99312.38;;;8.61;80.23
65718;BME280;52445;52.466;-1.016;2023-04-28T01:57:30;99310.66;;;8.63;80.81
65718;BME280;52445;52.466;-1.016;2023-04-28T01:59:57;99308.91;;;8.65;80.61
65718;BME280;52445;52.466;-1.016;2023-04-28T02:02:25;99302.91;;;8.68;80.20
65718;BME280;52445;52.466;-1.016;2023-04-28T02:04:51;99306.31;;;8.68;80.85
65718;BME280;52445;52.466;-1.016;2023-04-28T02:07:18;99302.84;;;8.72;80.08
65718;BME280;52445;52.466;-1.016;2023-04-28T02:09:45;99295.97;;;8.73;79.51
65718;BME280;52445;52.466;-1.016;2023-04-28T02:12:11;99298.56;;;8.71;79.94
65718;BME280;52445;52.466;-1.016;2023-04-28T02:14:38;99301.13;;;8.71;80.24
65718;BME280;52445;52.466;-1.016;2023-04-28T02:17:04;99303.72;;;8.71;80.05
65718;BME280;52445;52.466;-1.016;2023-04-28T02:19:31;99305.41;;;8.72;80.48
65718;BME280;52445;52.466;-1.016;2023-04-28T02:21:58;99307.16;;;8.73;80.43
65718;BME280;52445;52.466;-1.016;2023-04-28T02:24:24;99307.09;;;8.77;80.32
65718;BME280;52445;52.466;-1.016;2023-04-28T02:26:51;99303.69;;;8.78;80.04
65718;BME280;52445;52.466;-1.016;2023-04-28T02:29:18;99301.94;;;8.80;80.23
65718;BME280;52445;52.466;-1.016;2023-04-28T02:31:45;99305.38;;;8.82;80.13
65718;BME280;52445;52.466;-1.016;2023-04-28T02:34:12;99295.03;;;8.85;80.37
65718;BME280;52445;52.466;-1.016;2023-04-28T02:36:40;99288.13;;;8.84;79.78
65718;BME280;52445;52.466;-1.016;2023-04-28T02:39:06;99290.69;;;8.87;79.55
65718;BME280;52445;52.466;-1.016;2023-04-28T02:41:33;99289.81;;;8.88;79.58
65718;BME280;52445;52.466;-1.016;2023-04-28T02:44:00;99283.81;;;8.86;79.84
65718;BME280;52445;52.466;-1.016;2023-04-28T02:46:26;99286.41;;;8.86;80.17
65718;BME280;52445;52.466;-1.016;2023-04-28T02:48:53;99288.13;;;8.84;80.26
65718;BME280;52445;52.466;-1.016;2023-04-28T02:51:19;99286.41;;;8.86;79.98
65718;BME280;52445;52.466;-1.016;2023-04-28T02:53:46;99282.94;;;8.87;79.78
65718;BME280;52445;52.466;-1.016;2023-04-28T02:56:13;99284.66;;;8.88;79.58
65718;BME280;52445;52.466;-1.016;2023-04-28T02:58:39;99273.47;;;8.87;79.93
65718;BME280;52445;52.466;-1.016;2023-04-28T03:01:06;99279.47;;;8.88;79.92
65718;BME280;52445;52.466;-1.016;2023-04-28T03:03:32;99278.66;;;8.86;80.13
65718;BME280;52445;52.466;-1.016;2023-04-28T03:05:59;99272.63;;;8.84;80.62
65718;BME280;52445;52.466;-1.016;2023-04-28T03:08:26;99281.22;;;8.89;80.53
65718;BME280;52445;52.466;-1.016;2023-04-28T03:10:53;99280.34;;;8.89;80.33
65718;BME280;52445;52.466;-1.016;2023-04-28T03:13:19;99276.00;;;8.92;80.27
65718;BME280;52445;52.466;-1.016;2023-04-28T03:15:46;99277.75;;;8.93;79.34
65718;BME280;52445;52.466;-1.016;2023-04-28T03:18:12;99276.84;;;8.97;79.59
65718;BME280;52445;52.466;-1.016;2023-04-28T03:20:39;99277.66;;;8.99;80.35
65718;BME280;52445;52.466;-1.016;2023-04-28T03:23:06;99275.94;;;9.02;79.71
65718;BME280;52445;52.466;-1.016;2023-04-28T03:25:32;99274.19;;;9.04;80.12
65718;BME280;52445;52.466;-1.016;2023-04-28T03:27:59;99280.22;;;9.06;79.46
65718;BME280;52445;52.466;-1.016;2023-04-28T03:30:25;99278.44;;;9.08;79.37
65718;BME280;52445;52.466;-1.016;2023-04-28T03:32:52;99277.59;;;9.09;79.73
65718;BME280;52445;52.466;-1.016;2023-04-28T03:35:19;99275.84;;;9.09;79.72
65718;BME280;52445;52.466;-1.016;2023-04-28T03:37:45;99274.13;;;9.13;79.61
65718;BME280;52445;52.466;-1.016;2023-04-28T03:40:12;99270.66;;;9.14;79.46
65718;BME280;52445;52.466;-1.016;2023-04-28T03:42:39;99274.09;;;9.16;79.85
65718;BME280;52445;52.466;-1.016;2023-04-28T03:45:06;99274.94;;;9.15;79.82
65718;BME280;52445;52.466;-1.016;2023-04-28T03:47:33;99277.50;;;9.18;79.02
65718;BME280;52445;52.466;-1.016;2023-04-28T03:50:00;99283.53;;;9.20;79.52
65718;BME280;52445;52.466;-1.016;2023-04-28T03:52:26;99280.94;;;9.20;79.21
65718;BME280;52445;52.466;-1.016;2023-04-28T03:54:53;99277.47;;;9.21;78.91
65718;BME280;52445;52.466;-1.016;2023-04-28T03:57:20;99274.03;;;9.22;78.92
65718;BME280;52445;52.466;-1.016;2023-04-28T03:59:46;99279.19;;;9.22;79.24
65718;BME280;52445;52.466;-1.016;2023-04-28T04:02:13;99281.78;;;9.22;78.64
65718;BME280;52445;52.466;-1.016;2023-04-28T04:04:39;99279.19;;;9.24;79.31
65718;BME280;52445;52.466;-1.016;2023-04-28T04:07:06;99282.63;;;9.26;79.48
65718;BME280;52445;52.466;-1.016;2023-04-28T04:09:33;99282.59;;;9.28;79.16
65718;BME280;52445;52.466;-1.016;2023-04-28T04:11:59;99272.22;;;9.29;79.42
65718;BME280;52445;52.466;-1.016;2023-04-28T04:14:26;99279.13;;;9.32;79.06
65718;BME280;52445;52.466;-1.016;2023-04-28T04:16:53;99282.53;;;9.34;79.28
65718;BME280;52445;52.466;-1.016;2023-04-28T04:19:20;99280.78;;;9.36;79.65
65718;BME280;52445;52.466;-1.016;2023-04-28T04:21:49;99282.47;;;9.38;79.17
65718;BME280;52445;52.466;-1.016;2023-04-28T04:24:16;99278.16;;;9.39;78.94
65718;BME280;52445;52.466;-1.016;2023-04-28T04:26:42;99285.88;;;9.42;79.13
65718;BME280;52445;52.466;-1.016;2023-04-28T04:29:09;99280.72;;;9.42;79.06
65718;BME280;52445;52.466;-1.016;2023-04-28T04:31:36;99272.09;;;9.43;78.86
65718;BME280;52445;52.466;-1.016;2023-04-28T04:34:03;99276.41;;;9.44;79.09
65718;BME280;52445;52.466;-1.016;2023-04-28T04:36:29;99274.63;;;9.46;78.83
65718;BME280;52445;52.466;-1.016;2023-04-28T04:38:58;99284.13;;;9.47;78.64
65718;BME280;52445;52.466;-1.016;2023-04-28T04:41:25;99284.94;;;9.49;79.08
65718;BME280;52445;52.466;-1.016;2023-04-28T04:43:52;99287.53;;;9.49;79.23
65718;BME280;52445;52.466;-1.016;2023-04-28T04:46:18;99289.25;;;9.50;78.83
65718;BME280;52445;52.466;-1.016;2023-04-28T04:48:45;99292.69;;;9.52;78.73
65718;BME280;52445;52.466;-1.016;2023-04-28T04:51:12;99290.94;;;9.55;79.09
65718;BME280;52445;52.466;-1.016;2023-04-28T04:53:39;99289.19;;;9.57;79.03
65718;BME280;52445;52.466;-1.016;2023-04-28T04:56:05;99291.75;;;9.58;79.17
65718;BME280;52445;52.466;-1.016;2023-04-28T04:58:32;99290.88;;;9.61;78.61
65718;BME280;52445;52.466;-1.016;2023-04-28T05:00:59;99293.44;;;9.62;78.53
65718;BME280;52445;52.466;-1.016;2023-04-28T05:03:25;99296.00;;;9.64;78.68
65718;BME280;52445;52.466;-1.016;2023-04-28T05:05:52;99298.56;;;9.66;78.49
65718;BME280;52445;52.466;-1.016;2023-04-28T05:08:19;99290.81;;;9.67;78.62
65718;BME280;52445;52.466;-1.016;2023-04-28T05:10:46;99292.50;;;9.68;78.71
65718;BME280;52445;52.466;-1.016;2023-04-28T05:13:12;99289.03;;;9.71;78.28
65718;BME280;52445;52.466;-1.016;2023-04-28T05:15:39;99292.47;;;9.73;78.61
65718;BME280;52445;52.466;-1.016;2023-04-28T05:18:06;99294.16;;;9.75;78.70
65718;BME280;52445;52.466;-1.016;2023-04-28T05:20:36;99308.78;;;9.78;78.38
65718;BME280;52445;52.466;-1.016;2023-04-28T05:23:03;99302.72;;;9.81;78.89
65718;BME280;52445;52.466;-1.016;2023-04-28T05:25:29;99304.38;;;9.85;79.08
65718;BME280;52445;52.466;-1.016;2023-04-28T05:27:56;99307.81;;;9.87;78.39
65718;BME280;52445;52.466;-1.016;2023-04-28T05:30:23;99310.38;;;9.90;78.51
65718;BME280;52445;52.466;-1.016;2023-04-28T05:32:49;99324.13;;;9.92;78.25
65718;BME280;52445;52.466;-1.016;2023-04-28T05:35:16;99322.41;;;9.94;78.54
65718;BME280;52445;52.466;-1.016;2023-04-28T05:37:43;99322.38;;;9.96;78.80
65718;BME280;52445;52.466;-1.016;2023-04-28T05:40:10;99311.97;;;9.99;78.23
65718;BME280;52445;52.466;-1.016;2023-04-28T05:42:37;99313.69;;;10.01;78.54
65718;BME280;52445;52.466;-1.016;2023-04-28T05:45:05;99314.47;;;10.07;78.77
65718;BME280;52445;52.466;-1.016;2023-04-28T05:47:32;99320.47;;;10.09;78.71
65718;BME280;52445;52.466;-1.016;2023-04-28T05:49:58;99319.63;;;10.10;79.01
65718;BME280;52445;52.466;-1.016;2023-04-28T05:52:25;99315.28;;;10.12;78.26
65718;BME280;52445;52.466;-1.016;2023-04-28T05:54:52;99310.94;;;10.14;79.09
65718;BME280;52445;52.466;-1.016;2023-04-28T05:57:18;99315.22;;;10.16;78.86
65718;BME280;52445;52.466;-1.016;2023-04-28T05:59:45;99317.78;;;10.18;78.69
65718;BME280;52445;52.466;-1.016;2023-04-28T06:02:12;99319.47;;;10.22;78.42
65718;BME280;52445;52.466;-1.016;2023-04-28T06:04:39;99322.84;;;10.26;79.04
65718;BME280;52445;52.466;-1.016;2023-04-28T06:07:06;99321.94;;;10.30;78.60
65718;BME280;52445;52.466;-1.016;2023-04-28T06:09:33;99322.75;;;10.34;79.23
65718;BME280;52445;52.466;-1.016;2023-04-28T06:12:00;99327.88;;;10.38;78.47
65718;BME280;52445;52.466;-1.016;2023-04-28T06:14:26;99327.81;;;10.41;79.07
65718;BME280;52445;52.466;-1.016;2023-04-28T06:16:53;99332.09;;;10.46;79.15
65718;BME280;52445;52.466;-1.016;2023-04-28T06:19:19;99332.06;;;10.50;79.71
65718;BME280;52445;52.466;-1.016;2023-04-28T06:21:46;99332.84;;;10.56;79.93
65718;BME280;52445;52.466;-1.016;2023-04-28T06:24:15;99334.47;;;10.63;80.30
65718;BME280;52445;52.466;-1.016;2023-04-28T06:26:42;99334.44;;;10.66;80.57
65718;BME280;52445;52.466;-1.016;2023-04-28T06:29:09;99336.97;;;10.71;79.50
65718;BME280;52445;52.466;-1.016;2023-04-28T06:31:36;99336.06;;;10.73;80.08
65718;BME280;52445;52.466;-1.016;2023-04-28T06:34:03;99343.75;;;10.78;79.62
65718;BME280;52445;52.466;-1.016;2023-04-28T06:36:30;99347.13;;;10.83;80.28
65718;BME280;52445;52.466;-1.016;2023-04-28T06:38:56;99356.53;;;10.89;80.08
65718;BME280;52445;52.466;-1.016;2023-04-28T06:41:24;99362.56;;;10.91;80.04
65718;BME280;52445;52.466;-1.016;2023-04-28T06:43:51;99361.66;;;10.95;80.24
65718;BME280;52445;52.466;-1.016;2023-04-28T06:46:17;99363.31;;;10.99;80.77
65718;BME280;52445;52.466;-1.016;2023-04-28T06:48:44;99358.91;;;11.04;79.76
65718;BME280;52445;52.466;-1.016;2023-04-28T06:51:11;99368.28;;;11.12;79.66
65718;BME280;52445;52.466;-1.016;2023-04-28T06:53:38;99376.03;;;11.15;80.50
65718;BME280;52445;52.466;-1.016;2023-04-28T06:56:04;99371.59;;;11.20;79.91
65718;BME280;52445;52.466;-1.016;2023-04-28T06:58:31;99367.28;;;11.21;79.67
65718;BME280;52445;52.466;-1.016;2023-04-28T07:00:58;99372.44;;;11.22;80.44
65718;BME280;52445;52.466;-1.016;2023-04-28T07:03:25;99378.44;;;11.24;80.12
65718;BME280;52445;52.466;-1.016;2023-04-28T07:05:53;99377.53;;;11.27;80.81
65718;BME280;52445;52.466;-1.016;2023-04-28T07:08:19;99381.88;;;11.28;81.36
65718;BME280;52445;52.466;-1.016;2023-04-28T07:10:46;99387.81;;;11.35;80.88
65718;BME280;52445;52.466;-1.016;2023-04-28T07:13:12;99394.69;;;11.36;80.18
65718;BME280;52445;52.466;-1.016;2023-04-28T07:15:39;99390.28;;;11.39;80.96
65718;BME280;52445;52.466;-1.016;2023-04-28T07:18:06;99394.50;;;11.47;81.08
65718;BME280;52445;52.466;-1.016;2023-04-28T07:20:33;99396.22;;;11.49;80.27
65718;BME280;52445;52.466;-1.016;2023-04-28T07:23:00;99394.44;;;11.50;80.48
65718;BME280;52445;52.466;-1.016;2023-04-28T07:25:27;99408.25;;;11.52;80.35
65718;BME280;52445;52.466;-1.016;2023-04-28T07:27:53;99401.41;;;11.48;81.30
65718;BME280;52445;52.466;-1.016;2023-04-28T07:30:20;99398.69;;;11.54;80.74
65718;BME280;52445;52.466;-1.016;2023-04-28T07:32:53;99412.50;;;11.57;80.43
65718;BME280;52445;52.466;-1.016;2023-04-28T07:35:20;99417.56;;;11.64;80.75
65718;BME280;52445;52.466;-1.016;2023-04-28T07:37:47;99412.28;;;11.70;80.52
65718;BME280;52445;52.466;-1.016;2023-04-28T07:40:14;99426.00;;;11.75;80.51
65718;BME280;52445;52.466;-1.016;2023-04-28T07:42:41;99418.16;;;11.80;80.98
65718;BME280;52445;52.466;-1.016;2023-04-28T07:45:08;99424.06;;;11.87;80.33
65718;BME280;52445;52.466;-1.016;2023-04-28T07:47:35;99428.38;;;11.88;80.64
65718;BME280;52445;52.466;-1.016;2023-04-28T07:50:02;99437.84;;;11.92;81.21
65718;BME280;52445;52.466;-1.016;2023-04-28T07:52:31;99433.41;;;11.97;80.01
65718;BME280;52445;52.466;-1.016;2023-04-28T07:54:58;99441.13;;;12.02;80.40
65718;BME280;52445;52.466;-1.016;2023-04-28T07:57:29;99448.03;;;12.01;79.80
65718;BME280;52445;52.466;-1.016;2023-04-28T07:59:55;99452.34;;;12.02;80.58
65718;BME280;52445;52.466;-1.016;2023-04-28T08:02:22;99455.84;;;12.01;79.97
65718;BME280;52445;52.466;-1.016;2023-04-28T08:04:49;99455.81;;;12.03;80.59
65718;BME280;52445;52.466;-1.016;2023-04-28T08:07:16;99468.75;;;12.04;79.85
65718;BME280;52445;52.466;-1.016;2023-04-28T08:09:43;99470.50;;;12.02;79.80
65718;BME280;52445;52.466;-1.016;2023-04-28T08:12:13;99469.69;;;12.02;80.11
65718;BME280;52445;52.466;-1.016;2023-04-28T08:14:40;99480.94;;;11.99;80.57
65718;BME280;52445;52.466;-1.016;2023-04-28T08:17:07;99477.53;;;11.97;80.86
65718;BME280;52445;52.466;-1.016;2023-04-28T08:19:33;99485.31;;;11.97;79.61
65718;BME280;52445;52.466;-1.016;2023-04-28T08:22:00;99487.06;;;11.95;80.88
65718;BME280;52445;52.466;-1.016;2023-04-28T08:24:32;99489.75;;;11.92;80.88
65718;BME280;52445;52.466;-1.016;2023-04-28T08:27:01;99492.44;;;11.86;80.24
65718;BME280;52445;52.466;-1.016;2023-04-28T08:29:29;99493.31;;;11.85;80.90
65718;BME280;52445;52.466;-1.016;2023-04-28T08:31:57;99502.84;;;11.82;79.63
65718;BME280;52445;52.466;-1.016;2023-04-28T08:34:24;99506.28;;;11.86;80.48
65718;BME280;52445;52.466;-1.016;2023-04-28T08:36:50;99504.53;;;11.87;80.15
65718;BME280;52445;52.466;-1.016;2023-04-28T08:39:17;99512.31;;;11.87;80.14
65718;BME280;52445;52.466;-1.016;2023-04-28T08:41:45;99521.78;;;11.89;80.73
65718;BME280;52445;52.466;-1.016;2023-04-28T08:44:12;99512.25;;;11.90;80.83
65718;BME280;52445;52.466;-1.016;2023-04-28T08:46:40;99527.78;;;11.93;79.67
65718;BME280;52445;52.466;-1.016;2023-04-28T08:49:13;99517.44;;;11.91;79.49
65718;BME280;52445;52.466;-1.016;2023-04-28T08:51:44;99525.22;;;11.91;79.85
65718;BME280;52445;52.466;-1.016;2023-04-28T08:54:14;99533.88;;;11.92;79.76
65718;BME280;52445;52.466;-1.016;2023-04-28T08:56:53;99534.69;;;11.94;80.12
65718;BME280;52445;52.466;-1.016;2023-04-28T08:59:20;99534.63;;;11.97;80.62
65718;BME280;52445;52.466;-1.016;2023-04-28T09:01:47;99543.16;;;12.05;79.04
65718;BME280;52445;52.466;-1.016;2023-04-28T09:04:16;99538.84;;;12.06;80.07
65718;BME280;52445;52.466;-1.016;2023-04-28T09:06:44;99546.44;;;12.17;80.02
65718;BME280;52445;52.466;-1.016;2023-04-28T09:09:20;99548.00;;;12.27;79.24
65718;BME280;52445;52.466;-1.016;2023-04-28T09:11:53;99540.94;;;12.36;79.15
65718;BME280;52445;52.466;-1.016;2023-04-28T09:14:22;99547.75;;;12.41;79.35
65718;BME280;52445;52.466;-1.016;2023-04-28T09:16:49;99553.63;;;12.51;79.50
65718;BME280;52445;52.466;-1.016;2023-04-28T09:19:17;99547.53;;;12.52;78.60
65718;BME280;52445;52.466;-1.016;2023-04-28T09:24:28;99561.13;;;12.67;79.57
65718;BME280;52445;52.466;-1.016;2023-04-28T09:27:00;99562.78;;;12.71;78.99
65718;BME280;52445;52.466;-1.016;2023-04-28T09:29:28;99562.66;;;12.77;78.63
65718;BME280;52445;52.466;-1.016;2023-04-28T09:34:51;99584.03;;;12.92;78.96
65718;BME280;52445;52.466;-1.016;2023-04-28T09:37:20;99584.88;;;12.94;78.09
65718;BME280;52445;52.466;-1.016;2023-04-28T09:39:48;99592.06;;;12.79;77.65
65718;BME280;52445;52.466;-1.016;2023-04-28T09:45:10;99597.16;;;12.85;77.50
65718;BME280;52445;52.466;-1.016;2023-04-28T09:50:15;99607.75;;;12.73;77.87
65718;BME280;52445;52.466;-1.016;2023-04-28T09:52:45;99607.84;;;12.70;77.10
65718;BME280;52445;52.466;-1.016;2023-04-28T09:55:23;99611.50;;;12.59;76.81
65718;BME280;52445;52.466;-1.016;2023-04-28T09:57:53;99610.66;;;12.56;76.62
65718;BME280;52445;52.466;-1.016;2023-04-28T10:00:20;99618.56;;;12.51;76.06
65718;BME280;52445;52.466;-1.016;2023-04-28T10:02:48;99622.09;;;12.47;77.62
65718;BME280;52445;52.466;-1.016;2023-04-28T10:05:16;99635.13;;;12.44;76.51
65718;BME280;52445;52.466;-1.016;2023-04-28T10:07:43;99634.16;;;12.51;76.93
65718;BME280;52445;52.466;-1.016;2023-04-28T10:10:10;99639.06;;;12.68;77.81
65718;BME280;52445;52.466;-1.016;2023-04-28T10:12:40;99643.06;;;12.85;77.41
65718;BME280;52445;52.466;-1.016;2023-04-28T10:15:08;99641.13;;;12.96;77.35
65718;BME280;52445;52.466;-1.016;2023-04-28T10:17:35;99648.56;;;13.15;75.82
65718;BME280;52445;52.466;-1.016;2023-04-28T10:20:05;99652.69;;;13.26;76.18
65718;BME280;52445;52.466;-1.016;2023-04-28T10:28:06;99662.25;;;13.25;74.47
65718;BME280;52445;52.466;-1.016;2023-04-28T10:30:33;99660.50;;;13.24;74.30
65718;BME280;52445;52.466;-1.016;2023-04-28T10:33:22;99673.75;;;13.13;74.01
65718;BME280;52445;52.466;-1.016;2023-04-28T10:35:49;99672.91;;;13.13;73.68
65718;BME280;52445;52.466;-1.016;2023-04-28T10:38:17;99677.38;;;13.04;73.72
65718;BME280;52445;52.466;-1.016;2023-04-28T10:40:48;99682.69;;;12.98;73.62
65718;BME280;52445;52.466;-1.016;2023-04-28T10:43:33;99687.09;;;12.93;74.52
65718;BME280;52445;52.466;-1.016;2023-04-28T10:46:01;99693.31;;;12.85;74.29
65718;BME280;52445;52.466;-1.016;2023-04-28T10:58:56;99711.28;;;12.98;75.08
65718;BME280;52445;52.466;-1.016;2023-04-28T11:04:08;99713.75;;;13.04;74.55
65718;BME280;52445;52.466;-1.016;2023-04-28T11:14:32;99728.41;;;13.08;74.15
65718;BME280;52445;52.466;-1.016;2023-04-28T11:17:02;99730.19;;;13.06;74.71
65718;BME280;52445;52.466;-1.016;2023-04-28T11:19:30;99722.44;;;13.05;74.45
65718;BME280;52445;52.466;-1.016;2023-04-28T11:22:00;99725.06;;;13.03;73.98
65718;BME280;52445;52.466;-1.016;2023-04-28T11:24:28;99725.09;;;13.00;74.25
65718;BME280;52445;52.466;-1.016;2023-04-28T11:26:56;99730.25;;;13.03;74.46
65718;BME280;52445;52.466;-1.016;2023-04-28T11:32:08;99734.88;;;13.34;73.34
65718;BME280;52445;52.466;-1.016;2023-04-28T11:34:35;99730.25;;;13.03;74.09
65718;BME280;52445;52.466;-1.016;2023-04-28T11:37:03;99738.19;;;12.97;73.90
65718;BME280;52445;52.466;-1.016;2023-04-28T11:39:32;99749.41;;;12.99;74.03
65718;BME280;52445;52.466;-1.016;2023-04-28T11:42:01;99745.81;;;13.06;74.77
65718;BME280;52445;52.466;-1.016;2023-04-28T11:44:29;99747.41;;;13.14;73.85
65718;BME280;52445;52.466;-1.016;2023-04-28T11:46:59;99745.47;;;13.25;74.14
65718;BME280;52445;52.466;-1.016;2023-04-28T11:49:30;99755.75;;;13.31;73.82
65718;BME280;52445;52.466;-1.016;2023-04-28T11:52:06;99756.59;;;13.32;73.54
65718;BME280;52445;52.466;-1.016;2023-04-28T11:54:34;99757.38;;;13.37;73.48
65718;BME280;52445;52.466;-1.016;2023-04-28T11:57:01;99762.59;;;13.35;73.08
65718;BME280;52445;52.466;-1.016;2023-04-28T11:59:32;99769.63;;;13.30;73.34
65718;BME280;52445;52.466;-1.016;2023-04-28T12:02:03;99768.84;;;13.27;72.77
65718;BME280;52445;52.466;-1.016;2023-04-28T12:04:39;99773.19;;;13.26;72.78
65718;BME280;52445;52.466;-1.016;2023-04-28T12:07:15;99775.66;;;13.34;73.17
65718;BME280;52445;52.466;-1.016;2023-04-28T12:12:33;99776.00;;;13.62;72.85
65718;BME280;52445;52.466;-1.016;2023-04-28T12:15:16;99779.06;;;13.83;72.48
65718;BME280;52445;52.466;-1.016;2023-04-28T12:17:46;99781.22;;;14.04;73.03
65718;BME280;52445;52.466;-1.016;2023-04-28T12:23:10;99789.59;;;14.20;71.75
65718;BME280;52445;52.466;-1.016;2023-04-28T12:25:45;99790.47;;;14.19;71.08
65718;BME280;52445;52.466;-1.016;2023-04-28T12:28:13;99803.50;;;14.19;70.81
65718;BME280;52445;52.466;-1.016;2023-04-28T12:30:39;99800.97;;;14.16;70.98
65718;BME280;52445;52.466;-1.016;2023-04-28T12:33:26;99798.69;;;14.00;70.59
65718;BME280;52445;52.466;-1.016;2023-04-28T12:35:53;99806.50;;;14.00;70.36
65718;BME280;52445;52.466;-1.016;2023-04-28T12:38:22;99813.41;;;14.01;71.39
65718;BME280;52445;52.466;-1.016;2023-04-28T12:40:48;99805.50;;;14.06;70.77
65718;BME280;52445;52.466;-1.016;2023-04-28T12:43:15;99809.69;;;14.13;70.84
65718;BME280;52445;52.466;-1.016;2023-04-28T12:45:42;99806.84;;;14.24;70.61
65718;BME280;52445;52.466;-1.016;2023-04-28T12:48:09;99815.44;;;14.29;70.22
65718;BME280;52445;52.466;-1.016;2023-04-28T12:50:36;99814.41;;;14.35;70.12
65718;BME280;52445;52.466;-1.016;2023-04-28T12:53:03;99822.16;;;14.39;69.83
65718;BME280;52445;52.466;-1.016;2023-04-28T12:55:30;99820.41;;;14.40;69.60
65718;BME280;52445;52.466;-1.016;2023-04-28T12:57:57;99821.19;;;14.44;69.48
65718;BME280;52445;52.466;-1.016;2023-04-28T13:00:24;99817.72;;;14.45;69.38
65718;BME280;52445;52.466;-1.016;2023-04-28T13:02:51;99816.84;;;14.44;69.11
65718;BME280;52445;52.466;-1.016;2023-04-28T13:05:18;99828.13;;;14.45;68.87
65718;BME280;52445;52.466;-1.016;2023-04-28T13:07:45;99828.31;;;14.35;68.88
65718;BME280;52445;52.466;-1.016;2023-04-28T13:10:12;99825.03;;;14.27;68.74
65718;BME280;52445;52.466;-1.016;2023-04-28T13:12:39;99834.47;;;14.33;68.95
65718;BME280;52445;52.466;-1.016;2023-04-28T13:15:07;99837.84;;;14.36;68.74
65718;BME280;52445;52.466;-1.016;2023-04-28T13:17:34;99842.03;;;14.44;69.04
65718;BME280;52445;52.466;-1.016;2023-04-28T13:20:01;99844.34;;;14.56;69.24
65718;BME280;52445;52.466;-1.016;2023-04-28T13:22:29;99842.28;;;14.71;68.59
65718;BME280;52445;52.466;-1.016;2023-04-28T13:24:56;99846.50;;;14.78;68.55
65718;BME280;52445;52.466;-1.016;2023-04-28T13:27:22;99842.16;;;14.78;68.26
65718;BME280;52445;52.466;-1.016;2023-04-28T13:29:49;99848.28;;;14.76;67.39
65718;BME280;52445;52.466;-1.016;2023-04-28T13:32:16;99859.66;;;14.72;68.04
65718;BME280;52445;52.466;-1.016;2023-04-28T13:34:42;99856.34;;;14.63;66.83
65718;BME280;52445;52.466;-1.016;2023-04-28T13:37:10;99864.94;;;14.69;67.07
65718;BME280;52445;52.466;-1.016;2023-04-28T13:39:37;99858.78;;;14.73;66.43
65718;BME280;52445;52.466;-1.016;2023-04-28T13:42:04;99860.50;;;14.72;66.31
65718;BME280;52445;52.466;-1.016;2023-04-28T13:44:32;99866.44;;;14.81;67.33